Historyczne dane pomiarowe

Dodano dane terminowe – wersja testowa.

Dane z okresu 1951-2019

Wersja bazy: 1.34 [2019-03-16, lista zmian], aktualizacja planowana na 2019-04-15

Dane meteo z obszaru Polski uzyskane na podstawie danych udostępnionych przez Instytut Meteorologii i Gospodarki Wodnej – Państwowy Instytut Badawczy.

 

Wybierz Datę:    

       

TemperaturaWilgotnośćWiatrCiśnienieOpadyŚniegCzas trwania zjawisk
 Stacja t tx tn tng RH VA  wxwx mslp ppp RRR   cm mm wxwxwxwxwxwxwx
1968-08-13 13.7 18.6 9.8--- 3.7 4.0---- 0.0------------
1968-08-14 17.2 23.6 4.5--- 1.3 3.0---- 0.0------------
1968-08-15 14.0 20.6 9.8--- 8.0 8.0---- 1.7------------
1968-08-16 14.1 19.6 7.0--- 7.3 6.0---- 0.4------------
1968-08-17 18.7 23.1 10.8--- 4.3 3.7---- 8.7------------
1968-08-18 15.7 20.0 13.0--- 4.7 3.3---- 0.0------------
1968-08-19 13.7 20.0 5.9--- 5.0 1.3---- 0.0------------
1968-08-20 11.2 14.6 8.4--- 6.7 1.3---- 2.6------------
1968-08-21 13.4 19.4 9.2--- 6.3 5.0---- 4.6------------
1968-08-22 16.0 21.6 9.3--- 3.7 2.0---- 0.0------------
1968-08-23 22.3 29.0 12.4--- 1.3 3.3---- 0.0------------
1968-08-24 22.1 28.5 14.5--- 2.0 3.7---- 0.0------------
1968-08-25 19.1 25.0 15.5--- 5.3 1.3---- 0.8------------
1968-08-26 18.0 23.1 13.5--- 5.0 1.7---- 40.6------------
1968-08-27 20.5 25.0 14.1--- 2.0 2.0---- 0.0------------
1968-08-28 20.2 27.5 12.9--- 2.3 2.0---- 4.7------------
1968-08-29 22.5 27.0 12.9--- 2.7 2.0---- 0.0------------
1968-08-30 20.3 27.1 13.4--- 0.7 1.7---- 9.2------------
1968-08-31 20.5 28.3 13.9--- 2.0 2.3---- 1.8------------
1968-09-01 18.9 26.1 12.9--- 4.7 1.3---- 21.2------------
1968-09-02 18.1 23.6 12.7--- 4.3 1.0---- 0.0------------
1968-09-03 19.0 26.8 12.9--- 0.0 0.3---- 0.0------------
1968-09-04 20.7 25.0 13.7--- 3.3 1.3---- 0.0------------
1968-09-05 19.5 25.8 11.2--- 3.7 1.0---- 0.0------------
1968-09-06 19.5 26.3 12.3--- 1.0 2.7---- 0.0------------
1968-09-07 18.5 27.5 10.2--- 0.7 1.0---- 0.0------------
1968-09-08 18.7 26.0 12.3--- 1.3 2.7---- 0.0------------
1968-09-09 12.6 18.4 9.2--- 4.3 0.7---- 1.3------------
1968-09-10 11.0 17.6 5.0--- 0.0 1.7---- 0.0------------
1968-09-11 9.2 17.6 0.6--- 0.0 1.0---- 0.0------------
170.8 ms

 

Źródłem pochodzenia danych jest Instytut Meteorologii i Gospodarki Wodnej – Państwowy Instytut Badawczy. Dane Instytutu Meteorologii i Gospodarki Wodnej – Państwowego Instytutu Badawczego zostały przetworzone.

Dane źródłowe można odnaleźć na stronie https://dane.imgw.pl